»·PEaware :: DAL213 KRNO-KSFO

DAL213 :: KRNO-KSFO

FLIGHT INFORMATION

Flight Status: Arrived
Operator:
Delta Air Lines
More flights by this operator :: More flights under this callsign
Pilot: Nico L. (9332)
Aircraft: BOEING 737-800
(B738)
More flights by this aircraft type
Origin: KRNO Reno/Tahoe Intl
United States
Destination: KSFO San Francisco Intl
United States
More flights between these airports :: More routes between these airports
Route: +ZEFFR6 MRLET LEGGS STLER3
File this flight plan on PilotEdge
Remarks: Live Streaming on Twitch "DAL213" and YT
Altitude:
(Current/Filed)
26,000ft
Speed:
(Current/Filed)
400kts
Departed: 15-May-19 07:49 PM
Arrived: 15-May-19 08:35 PM
Distance/Time
Traveled:
167nm/0:46
Distance/Time
To Go:
Arrived

Flight Plot

Page will automatically refresh every two minutes.


Map Options




Map Legend


Flown Route
Filed Route
Departure Airport
Arrival Airport
Navaid (VOR, NDB)
Fix

Horizontal Profiles

Position Reports

Time Latitude Longitude Heading Altitude Ground
Speed
15-May-19 19:30 39.507400 -119.772497 219 4424ft 0kts
15-May-19 19:31 39.507400 -119.772497 219 4424ft 0kts
15-May-19 19:32 39.507400 -119.772497 219 4424ft 0kts
15-May-19 19:33 39.507400 -119.772497 219 4424ft 0kts
15-May-19 19:34 39.507400 -119.772497 219 4424ft 0kts
15-May-19 19:35 39.507400 -119.772497 219 4424ft 0kts
15-May-19 19:36 39.507400 -119.772497 219 4424ft 0kts
15-May-19 19:37 39.507400 -119.772497 219 4424ft 0kts
15-May-19 19:38 39.507400 -119.772497 219 4424ft 0kts
15-May-19 19:39 39.507571 -119.772341 206 4424ft 2kts
15-May-19 19:40 39.508252 -119.772363 151 4424ft 0kts
15-May-19 19:41 39.508252 -119.772363 151 4424ft 0kts
15-May-19 19:42 39.508252 -119.772363 151 4424ft 0kts
15-May-19 19:43 39.508252 -119.772363 151 4424ft 0kts
15-May-19 19:44 39.508070 -119.771724 64 4424ft 7kts
15-May-19 19:45 39.511770 -119.771491 1 4424ft 16kts
15-May-19 19:46 39.513773 -119.770045 94 4424ft 9kts
15-May-19 19:47 39.513424 -119.769266 177 4424ft 0kts
15-May-19 19:48 39.489992 -119.769083 181 4666ft 166kts
15-May-19 19:49 39.439278 -119.769363 181 7067ft 211kts
15-May-19 19:50 39.371175 -119.769562 181 9380ft 267kts
15-May-19 19:51 39.291803 -119.777889 192 11545ft 316kts
15-May-19 19:52 39.204437 -119.803059 193 14735ft 328kts
15-May-19 19:53 39.113735 -119.831487 206 17756ft 342kts
15-May-19 19:54 39.082648 -119.940519 278 20827ft 378kts
15-May-19 19:55 39.113401 -120.074737 279 22918ft 399kts
15-May-19 19:56 39.144867 -120.214384 278 24991ft 410kts
15-May-19 19:57 39.176723 -120.358397 278 25867ft 429kts
15-May-19 19:58 39.209633 -120.508130 278 25876ft 435kts
15-May-19 19:59 39.242473 -120.658593 278 25883ft 435kts
15-May-19 20:00 39.274998 -120.808635 278 25886ft 435kts
15-May-19 20:01 39.307386 -120.959049 278 25873ft 435kts
15-May-19 20:02 39.310753 -121.108021 245 25853ft 410kts
15-May-19 20:03 39.249112 -121.228644 228 25815ft 402kts
15-May-19 20:04 39.177597 -121.339360 227 25797ft 402kts
15-May-19 20:05 39.105729 -121.449507 227 25785ft 402kts
15-May-19 20:06 39.033412 -121.559611 227 25791ft 401kts
15-May-19 20:07 38.961327 -121.668891 227 25792ft 401kts
15-May-19 20:08 38.889178 -121.777898 227 25790ft 401kts
15-May-19 20:09 38.816734 -121.886993 227 25784ft 400kts
15-May-19 20:10 38.744533 -121.995364 227 25783ft 400kts
15-May-19 20:11 38.672062 -122.103722 226 25777ft 401kts
15-May-19 20:12 38.599258 -122.212239 226 25776ft 401kts
15-May-19 20:13 38.526590 -122.320183 226 25751ft 401kts
15-May-19 20:14 38.456574 -122.423854 226 23837ft 372kts
15-May-19 20:15 38.391149 -122.521110 226 21301ft 342kts
15-May-19 20:16 38.328871 -122.613425 226 18844ft 344kts
15-May-19 20:17 38.265045 -122.707791 226 16015ft 356kts
15-May-19 20:18 38.178463 -122.750262 175 14114ft 346kts
15-May-19 20:19 38.084162 -122.726029 170 13384ft 344kts
15-May-19 20:20 37.992605 -122.700078 170 12565ft 307kts
15-May-19 20:21 37.918172 -122.678645 171 11332ft 262kts
15-May-19 20:22 37.853592 -122.659826 124 10319ft 257kts
15-May-19 20:23 37.861639 -122.564984 84 8847ft 283kts
15-May-19 20:24 37.879543 -122.469010 84 7351ft 274kts
15-May-19 20:25 37.893065 -122.376364 101 5743ft 260kts
15-May-19 20:26 37.884485 -122.286720 104 4154ft 252kts
15-May-19 20:27 37.845633 -122.250002 183 3136ft 184kts
15-May-19 20:28 37.801154 -122.254580 189 3089ft 155kts
15-May-19 20:29 37.762215 -122.277398 204 2885ft 149kts
15-May-19 20:30 37.726415 -122.301317 203 2189ft 142kts
15-May-19 20:31 37.692736 -122.323695 202 1448ft 135kts
15-May-19 20:32 37.658988 -122.346115 202 728ft 138kts
15-May-19 20:33 37.624085 -122.369267 204 32ft 138kts
15-May-19 20:34 37.613713 -122.379938 302 22ft 18kts
15-May-19 20:35 37.616480 -122.379725 27 22ft 13kts
15-May-19 20:36 37.617862 -122.380641 258 22ft 0kts
15-May-19 20:37 37.617862 -122.380641 258 22ft 0kts
15-May-19 20:38 37.617862 -122.380641 258 22ft 0kts
15-May-19 20:39 37.617862 -122.380641 258 22ft 0kts
15-May-19 20:40 37.617862 -122.380641 258 22ft 0kts
15-May-19 20:41 37.617862 -122.380641 258 22ft 0kts
15-May-19 20:42 37.617862 -122.380641 258 22ft 0kts
15-May-19 20:43 37.617862 -122.380641 258 22ft 0kts
15-May-19 20:44 37.617862 -122.380641 258 22ft 0kts

Navigation Log

Ident Type
Flight plan parsing failed, navigation log unavailable